sensor_id;sensor_type;location;lat;lon;timestamp;P1;durP1;ratioP1;P2;durP2;ratioP2
66751;SDS011;53663;42.676;23.238;2024-01-25T00:00:17;13.45;;;6.38;;
66751;SDS011;53663;42.676;23.238;2024-01-25T00:02:42;18.13;;;7.93;;
66751;SDS011;53663;42.676;23.238;2024-01-25T00:05:08;19.38;;;9.27;;
66751;SDS011;53663;42.676;23.238;2024-01-25T00:07:33;18.23;;;8.80;;
66751;SDS011;53663;42.676;23.238;2024-01-25T00:09:59;17.77;;;8.77;;
66751;SDS011;53663;42.676;23.238;2024-01-25T00:12:25;16.48;;;8.20;;
66751;SDS011;53663;42.676;23.238;2024-01-25T00:14:51;19.85;;;8.65;;
66751;SDS011;53663;42.676;23.238;2024-01-25T00:17:17;15.45;;;8.05;;
66751;SDS011;53663;42.676;23.238;2024-01-25T00:19:43;13.88;;;7.03;;
66751;SDS011;53663;42.676;23.238;2024-01-25T00:22:09;17.63;;;8.70;;
66751;SDS011;53663;42.676;23.238;2024-01-25T00:24:34;13.65;;;6.05;;
66751;SDS011;53663;42.676;23.238;2024-01-25T00:27:01;7.10;;;3.80;;
66751;SDS011;53663;42.676;23.238;2024-01-25T00:29:28;7.13;;;2.80;;
66751;SDS011;53663;42.676;23.238;2024-01-25T00:31:55;2.00;;;1.52;;
66751;SDS011;53663;42.676;23.238;2024-01-25T00:34:21;4.43;;;1.65;;
66751;SDS011;53663;42.676;23.238;2024-01-25T00:36:47;3.88;;;1.67;;
66751;SDS011;53663;42.676;23.238;2024-01-25T00:39:13;3.10;;;1.60;;
66751;SDS011;53663;42.676;23.238;2024-01-25T00:41:38;2.08;;;1.30;;
66751;SDS011;53663;42.676;23.238;2024-01-25T00:44:08;1.58;;;1.20;;
66751;SDS011;53663;42.676;23.238;2024-01-25T00:46:34;2.75;;;1.30;;
66751;SDS011;53663;42.676;23.238;2024-01-25T00:48:59;4.20;;;1.60;;
66751;SDS011;53663;42.676;23.238;2024-01-25T00:51:25;11.30;;;6.10;;
66751;SDS011;53663;42.676;23.238;2024-01-25T00:53:51;17.92;;;7.47;;
66751;SDS011;53663;42.676;23.238;2024-01-25T00:56:17;16.35;;;7.45;;
66751;SDS011;53663;42.676;23.238;2024-01-25T00:58:43;21.00;;;8.88;;
66751;SDS011;53663;42.676;23.238;2024-01-25T01:01:08;15.23;;;7.82;;
66751;SDS011;53663;42.676;23.238;2024-01-25T01:03:35;19.52;;;7.95;;
66751;SDS011;53663;42.676;23.238;2024-01-25T01:06:01;14.60;;;6.82;;
66751;SDS011;53663;42.676;23.238;2024-01-25T01:08:27;12.07;;;6.43;;
66751;SDS011;53663;42.676;23.238;2024-01-25T01:10:53;10.73;;;5.20;;
66751;SDS011;53663;42.676;23.238;2024-01-25T01:13:18;9.30;;;4.38;;
66751;SDS011;53663;42.676;23.238;2024-01-25T01:15:44;3.55;;;2.50;;
66751;SDS011;53663;42.676;23.238;2024-01-25T01:18:09;3.20;;;1.98;;
66751;SDS011;53663;42.676;23.238;2024-01-25T01:20:35;3.75;;;1.77;;
66751;SDS011;53663;42.676;23.238;2024-01-25T01:23:00;3.67;;;1.45;;
66751;SDS011;53663;42.676;23.238;2024-01-25T01:25:26;1.52;;;1.33;;
66751;SDS011;53663;42.676;23.238;2024-01-25T01:27:51;1.98;;;1.17;;
66751;SDS011;53663;42.676;23.238;2024-01-25T01:30:17;2.42;;;1.13;;
66751;SDS011;53663;42.676;23.238;2024-01-25T01:32:42;2.65;;;1.10;;
66751;SDS011;53663;42.676;23.238;2024-01-25T01:35:08;12.27;;;1.50;;
66751;SDS011;53663;42.676;23.238;2024-01-25T01:37:33;3.80;;;1.38;;
66751;SDS011;53663;42.676;23.238;2024-01-25T01:39:59;2.78;;;1.50;;
66751;SDS011;53663;42.676;23.238;2024-01-25T01:42:25;5.43;;;1.67;;
66751;SDS011;53663;42.676;23.238;2024-01-25T01:44:52;2.72;;;1.40;;
66751;SDS011;53663;42.676;23.238;2024-01-25T01:47:19;2.60;;;1.08;;
66751;SDS011;53663;42.676;23.238;2024-01-25T01:49:44;0.85;;;0.65;;
66751;SDS011;53663;42.676;23.238;2024-01-25T01:52:10;1.33;;;1.00;;
66751;SDS011;53663;42.676;23.238;2024-01-25T01:54:36;2.63;;;1.27;;
66751;SDS011;53663;42.676;23.238;2024-01-25T01:57:02;2.33;;;1.10;;
66751;SDS011;53663;42.676;23.238;2024-01-25T01:59:29;0.85;;;0.85;;
66751;SDS011;53663;42.676;23.238;2024-01-25T02:01:55;2.28;;;1.10;;
66751;SDS011;53663;42.676;23.238;2024-01-25T02:04:21;2.97;;;1.10;;
66751;SDS011;53663;42.676;23.238;2024-01-25T02:06:46;1.27;;;0.98;;
66751;SDS011;53663;42.676;23.238;2024-01-25T02:09:12;2.40;;;1.00;;
66751;SDS011;53663;42.676;23.238;2024-01-25T02:11:38;1.85;;;1.40;;
66751;SDS011;53663;42.676;23.238;2024-01-25T02:14:04;3.65;;;1.50;;
66751;SDS011;53663;42.676;23.238;2024-01-25T02:16:30;1.73;;;1.10;;
66751;SDS011;53663;42.676;23.238;2024-01-25T02:18:55;1.92;;;1.23;;
66751;SDS011;53663;42.676;23.238;2024-01-25T02:21:22;1.73;;;1.10;;
66751;SDS011;53663;42.676;23.238;2024-01-25T02:23:49;1.10;;;0.95;;
66751;SDS011;53663;42.676;23.238;2024-01-25T02:26:15;1.15;;;0.90;;
66751;SDS011;53663;42.676;23.238;2024-01-25T02:28:41;3.95;;;0.98;;
66751;SDS011;53663;42.676;23.238;2024-01-25T02:31:06;2.40;;;1.00;;
66751;SDS011;53663;42.676;23.238;2024-01-25T02:33:31;1.42;;;1.10;;
66751;SDS011;53663;42.676;23.238;2024-01-25T02:35:57;1.75;;;0.90;;
66751;SDS011;53663;42.676;23.238;2024-01-25T02:38:23;1.13;;;0.80;;
66751;SDS011;53663;42.676;23.238;2024-01-25T02:40:48;1.08;;;0.95;;
66751;SDS011;53663;42.676;23.238;2024-01-25T02:43:14;1.10;;;0.80;;
66751;SDS011;53663;42.676;23.238;2024-01-25T02:45:40;1.83;;;0.75;;
66751;SDS011;53663;42.676;23.238;2024-01-25T02:48:05;2.88;;;1.10;;
66751;SDS011;53663;42.676;23.238;2024-01-25T02:50:31;8.43;;;2.92;;
66751;SDS011;53663;42.676;23.238;2024-01-25T02:52:57;2.35;;;1.10;;
66751;SDS011;53663;42.676;23.238;2024-01-25T02:55:23;2.35;;;0.90;;
66751;SDS011;53663;42.676;23.238;2024-01-25T02:57:48;0.73;;;0.73;;
66751;SDS011;53663;42.676;23.238;2024-01-25T03:00:14;0.75;;;0.70;;
66751;SDS011;53663;42.676;23.238;2024-01-25T03:02:40;1.55;;;1.02;;
66751;SDS011;53663;42.676;23.238;2024-01-25T03:05:05;1.15;;;1.00;;
66751;SDS011;53663;42.676;23.238;2024-01-25T03:07:31;1.70;;;0.90;;
66751;SDS011;53663;42.676;23.238;2024-01-25T03:09:57;2.47;;;0.88;;
66751;SDS011;53663;42.676;23.238;2024-01-25T03:12:22;1.48;;;1.13;;
66751;SDS011;53663;42.676;23.238;2024-01-25T03:14:48;2.10;;;0.90;;
66751;SDS011;53663;42.676;23.238;2024-01-25T03:17:14;1.65;;;0.93;;
66751;SDS011;53663;42.676;23.238;2024-01-25T03:19:39;1.17;;;0.98;;
66751;SDS011;53663;42.676;23.238;2024-01-25T03:22:05;1.58;;;1.20;;
66751;SDS011;53663;42.676;23.238;2024-01-25T03:24:30;2.20;;;1.08;;
66751;SDS011;53663;42.676;23.238;2024-01-25T03:26:56;5.15;;;2.00;;
66751;SDS011;53663;42.676;23.238;2024-01-25T03:29:21;1.13;;;0.95;;
66751;SDS011;53663;42.676;23.238;2024-01-25T03:31:47;2.10;;;1.10;;
66751;SDS011;53663;42.676;23.238;2024-01-25T03:34:12;3.33;;;1.00;;
66751;SDS011;53663;42.676;23.238;2024-01-25T03:36:38;1.50;;;1.20;;
66751;SDS011;53663;42.676;23.238;2024-01-25T03:39:05;2.35;;;1.13;;
66751;SDS011;53663;42.676;23.238;2024-01-25T03:41:31;1.90;;;1.20;;
66751;SDS011;53663;42.676;23.238;2024-01-25T03:43:56;1.50;;;0.90;;
66751;SDS011;53663;42.676;23.238;2024-01-25T03:46:22;1.98;;;1.25;;
66751;SDS011;53663;42.676;23.238;2024-01-25T03:48:47;2.55;;;1.10;;
66751;SDS011;53663;42.676;23.238;2024-01-25T03:51:13;2.58;;;1.10;;
66751;SDS011;53663;42.676;23.238;2024-01-25T03:53:38;4.07;;;1.20;;
66751;SDS011;53663;42.676;23.238;2024-01-25T03:56:10;2.63;;;1.20;;
66751;SDS011;53663;42.676;23.238;2024-01-25T03:58:36;2.72;;;1.45;;
66751;SDS011;53663;42.676;23.238;2024-01-25T04:01:02;1.98;;;1.45;;
66751;SDS011;53663;42.676;23.238;2024-01-25T04:03:28;2.13;;;1.33;;
66751;SDS011;53663;42.676;23.238;2024-01-25T04:05:53;6.07;;;1.63;;
66751;SDS011;53663;42.676;23.238;2024-01-25T04:08:19;5.07;;;1.60;;
66751;SDS011;53663;42.676;23.238;2024-01-25T04:10:44;3.22;;;1.30;;
66751;SDS011;53663;42.676;23.238;2024-01-25T04:13:10;1.85;;;1.02;;
66751;SDS011;53663;42.676;23.238;2024-01-25T04:15:35;3.80;;;1.27;;
66751;SDS011;53663;42.676;23.238;2024-01-25T04:18:01;3.42;;;1.27;;
66751;SDS011;53663;42.676;23.238;2024-01-25T04:20:26;3.47;;;1.20;;
66751;SDS011;53663;42.676;23.238;2024-01-25T04:22:52;3.20;;;1.48;;
66751;SDS011;53663;42.676;23.238;2024-01-25T04:25:18;1.85;;;1.25;;
66751;SDS011;53663;42.676;23.238;2024-01-25T04:27:43;4.07;;;1.30;;
66751;SDS011;53663;42.676;23.238;2024-01-25T04:30:09;3.83;;;1.20;;
66751;SDS011;53663;42.676;23.238;2024-01-25T04:32:35;1.30;;;1.20;;
66751;SDS011;53663;42.676;23.238;2024-01-25T04:35:01;2.75;;;1.30;;
66751;SDS011;53663;42.676;23.238;2024-01-25T04:37:26;2.38;;;1.35;;
66751;SDS011;53663;42.676;23.238;2024-01-25T04:39:52;2.17;;;1.55;;
66751;SDS011;53663;42.676;23.238;2024-01-25T04:42:17;1.35;;;0.98;;
66751;SDS011;53663;42.676;23.238;2024-01-25T04:44:43;1.50;;;0.98;;
66751;SDS011;53663;42.676;23.238;2024-01-25T04:47:09;2.03;;;1.23;;
66751;SDS011;53663;42.676;23.238;2024-01-25T04:49:35;1.65;;;1.13;;
66751;SDS011;53663;42.676;23.238;2024-01-25T04:52:00;2.10;;;1.10;;
66751;SDS011;53663;42.676;23.238;2024-01-25T04:54:26;2.63;;;1.20;;
66751;SDS011;53663;42.676;23.238;2024-01-25T04:56:52;2.33;;;1.10;;
66751;SDS011;53663;42.676;23.238;2024-01-25T04:59:18;2.47;;;1.42;;
66751;SDS011;53663;42.676;23.238;2024-01-25T05:01:43;2.90;;;1.17;;
66751;SDS011;53663;42.676;23.238;2024-01-25T05:04:09;5.20;;;1.35;;
66751;SDS011;53663;42.676;23.238;2024-01-25T05:06:34;4.63;;;2.38;;
66751;SDS011;53663;42.676;23.238;2024-01-25T05:09:00;6.30;;;1.90;;
66751;SDS011;53663;42.676;23.238;2024-01-25T05:11:26;3.17;;;1.50;;
66751;SDS011;53663;42.676;23.238;2024-01-25T05:13:51;3.85;;;1.52;;
66751;SDS011;53663;42.676;23.238;2024-01-25T05:16:17;2.28;;;1.40;;
66751;SDS011;53663;42.676;23.238;2024-01-25T05:18:42;3.85;;;1.50;;
66751;SDS011;53663;42.676;23.238;2024-01-25T05:21:08;1.98;;;1.40;;
66751;SDS011;53663;42.676;23.238;2024-01-25T05:23:33;3.13;;;0.93;;
66751;SDS011;53663;42.676;23.238;2024-01-25T05:25:59;3.13;;;1.42;;
66751;SDS011;53663;42.676;23.238;2024-01-25T05:28:27;5.07;;;1.65;;
66751;SDS011;53663;42.676;23.238;2024-01-25T05:30:52;3.15;;;1.40;;
66751;SDS011;53663;42.676;23.238;2024-01-25T05:33:18;3.95;;;1.70;;
66751;SDS011;53663;42.676;23.238;2024-01-25T05:35:43;1.63;;;1.33;;
66751;SDS011;53663;42.676;23.238;2024-01-25T05:38:09;2.53;;;1.33;;
66751;SDS011;53663;42.676;23.238;2024-01-25T05:40:34;2.60;;;1.40;;
66751;SDS011;53663;42.676;23.238;2024-01-25T05:43:00;4.85;;;2.10;;
66751;SDS011;53663;42.676;23.238;2024-01-25T05:45:25;5.60;;;2.10;;
66751;SDS011;53663;42.676;23.238;2024-01-25T05:47:51;7.85;;;1.63;;
66751;SDS011;53663;42.676;23.238;2024-01-25T05:50:17;4.63;;;1.67;;
66751;SDS011;53663;42.676;23.238;2024-01-25T05:52:42;4.35;;;1.88;;
66751;SDS011;53663;42.676;23.238;2024-01-25T05:55:08;6.05;;;1.60;;
66751;SDS011;53663;42.676;23.238;2024-01-25T05:57:34;4.43;;;1.42;;
66751;SDS011;53663;42.676;23.238;2024-01-25T06:00:01;9.30;;;3.30;;
66751;SDS011;53663;42.676;23.238;2024-01-25T06:02:26;3.13;;;1.73;;
66751;SDS011;53663;42.676;23.238;2024-01-25T06:04:52;5.22;;;1.95;;
66751;SDS011;53663;42.676;23.238;2024-01-25T06:07:17;7.63;;;1.90;;
66751;SDS011;53663;42.676;23.238;2024-01-25T06:09:43;5.10;;;1.67;;
66751;SDS011;53663;42.676;23.238;2024-01-25T06:12:08;5.70;;;2.38;;
66751;SDS011;53663;42.676;23.238;2024-01-25T06:14:34;5.30;;;1.92;;
66751;SDS011;53663;42.676;23.238;2024-01-25T06:16:59;4.13;;;1.70;;
66751;SDS011;53663;42.676;23.238;2024-01-25T06:19:25;5.18;;;1.70;;
66751;SDS011;53663;42.676;23.238;2024-01-25T06:21:50;4.30;;;2.00;;
66751;SDS011;53663;42.676;23.238;2024-01-25T06:24:16;9.30;;;1.80;;
66751;SDS011;53663;42.676;23.238;2024-01-25T06:26:41;9.93;;;2.45;;
66751;SDS011;53663;42.676;23.238;2024-01-25T06:29:07;5.60;;;2.60;;
66751;SDS011;53663;42.676;23.238;2024-01-25T06:31:32;5.55;;;2.40;;
66751;SDS011;53663;42.676;23.238;2024-01-25T06:33:58;4.40;;;2.05;;
66751;SDS011;53663;42.676;23.238;2024-01-25T06:36:23;4.35;;;1.70;;
66751;SDS011;53663;42.676;23.238;2024-01-25T06:38:49;5.13;;;2.20;;
66751;SDS011;53663;42.676;23.238;2024-01-25T06:41:14;3.78;;;2.05;;
66751;SDS011;53663;42.676;23.238;2024-01-25T06:43:41;3.75;;;1.77;;
66751;SDS011;53663;42.676;23.238;2024-01-25T06:46:07;7.25;;;1.90;;
66751;SDS011;53663;42.676;23.238;2024-01-25T06:48:33;7.75;;;2.47;;
66751;SDS011;53663;42.676;23.238;2024-01-25T06:50:59;5.45;;;2.33;;
66751;SDS011;53663;42.676;23.238;2024-01-25T06:53:26;5.75;;;2.72;;
66751;SDS011;53663;42.676;23.238;2024-01-25T06:55:53;5.88;;;2.33;;
66751;SDS011;53663;42.676;23.238;2024-01-25T06:58:19;8.35;;;2.67;;
66751;SDS011;53663;42.676;23.238;2024-01-25T07:00:44;5.32;;;2.20;;
66751;SDS011;53663;42.676;23.238;2024-01-25T07:03:11;5.47;;;2.60;;
66751;SDS011;53663;42.676;23.238;2024-01-25T07:05:38;4.32;;;2.00;;
66751;SDS011;53663;42.676;23.238;2024-01-25T07:08:03;5.63;;;2.97;;
66751;SDS011;53663;42.676;23.238;2024-01-25T07:10:29;5.68;;;2.22;;
66751;SDS011;53663;42.676;23.238;2024-01-25T07:12:55;6.28;;;2.60;;
66751;SDS011;53663;42.676;23.238;2024-01-25T07:15:20;4.43;;;2.30;;
66751;SDS011;53663;42.676;23.238;2024-01-25T07:17:46;5.07;;;1.90;;
66751;SDS011;53663;42.676;23.238;2024-01-25T07:20:12;8.50;;;2.20;;
66751;SDS011;53663;42.676;23.238;2024-01-25T07:22:38;7.53;;;2.78;;
66751;SDS011;53663;42.676;23.238;2024-01-25T07:25:03;7.30;;;3.58;;
66751;SDS011;53663;42.676;23.238;2024-01-25T07:27:29;6.03;;;2.40;;
66751;SDS011;53663;42.676;23.238;2024-01-25T07:29:55;10.10;;;2.22;;
66751;SDS011;53663;42.676;23.238;2024-01-25T07:32:20;6.07;;;2.17;;
66751;SDS011;53663;42.676;23.238;2024-01-25T07:34:46;7.63;;;2.30;;
66751;SDS011;53663;42.676;23.238;2024-01-25T07:37:12;6.28;;;2.30;;
66751;SDS011;53663;42.676;23.238;2024-01-25T07:39:38;7.15;;;2.45;;
66751;SDS011;53663;42.676;23.238;2024-01-25T07:42:04;6.88;;;2.20;;
66751;SDS011;53663;42.676;23.238;2024-01-25T07:44:30;7.18;;;2.45;;
66751;SDS011;53663;42.676;23.238;2024-01-25T07:46:55;7.03;;;2.60;;
66751;SDS011;53663;42.676;23.238;2024-01-25T07:49:21;9.57;;;2.17;;
66751;SDS011;53663;42.676;23.238;2024-01-25T07:51:47;6.93;;;2.75;;
66751;SDS011;53663;42.676;23.238;2024-01-25T07:54:14;7.97;;;2.47;;
66751;SDS011;53663;42.676;23.238;2024-01-25T07:56:39;6.13;;;1.98;;
66751;SDS011;53663;42.676;23.238;2024-01-25T07:59:05;5.93;;;2.17;;
66751;SDS011;53663;42.676;23.238;2024-01-25T08:01:30;9.00;;;2.30;;
66751;SDS011;53663;42.676;23.238;2024-01-25T08:03:56;9.45;;;2.35;;
66751;SDS011;53663;42.676;23.238;2024-01-25T08:06:22;5.80;;;2.15;;
66751;SDS011;53663;42.676;23.238;2024-01-25T08:08:47;7.53;;;2.22;;
66751;SDS011;53663;42.676;23.238;2024-01-25T08:11:14;9.70;;;2.28;;
66751;SDS011;53663;42.676;23.238;2024-01-25T08:13:43;10.80;;;2.63;;
66751;SDS011;53663;42.676;23.238;2024-01-25T08:16:09;6.70;;;2.15;;
66751;SDS011;53663;42.676;23.238;2024-01-25T08:18:39;5.60;;;2.20;;
66751;SDS011;53663;42.676;23.238;2024-01-25T08:21:05;7.45;;;2.40;;
66751;SDS011;53663;42.676;23.238;2024-01-25T08:23:31;10.88;;;2.58;;
66751;SDS011;53663;42.676;23.238;2024-01-25T08:25:57;4.93;;;2.08;;
66751;SDS011;53663;42.676;23.238;2024-01-25T08:28:22;8.65;;;2.42;;
66751;SDS011;53663;42.676;23.238;2024-01-25T08:30:48;5.53;;;2.05;;
66751;SDS011;53663;42.676;23.238;2024-01-25T08:33:14;6.68;;;2.70;;
66751;SDS011;53663;42.676;23.238;2024-01-25T08:35:40;7.75;;;2.40;;
66751;SDS011;53663;42.676;23.238;2024-01-25T08:38:08;9.15;;;2.00;;
66751;SDS011;53663;42.676;23.238;2024-01-25T08:40:34;7.60;;;2.20;;
66751;SDS011;53663;42.676;23.238;2024-01-25T08:42:59;6.43;;;2.42;;
66751;SDS011;53663;42.676;23.238;2024-01-25T08:45:25;9.23;;;3.58;;
66751;SDS011;53663;42.676;23.238;2024-01-25T08:47:51;6.95;;;2.80;;
66751;SDS011;53663;42.676;23.238;2024-01-25T08:50:17;9.30;;;2.55;;
66751;SDS011;53663;42.676;23.238;2024-01-25T08:52:43;6.35;;;2.40;;
66751;SDS011;53663;42.676;23.238;2024-01-25T08:55:09;8.75;;;2.25;;
66751;SDS011;53663;42.676;23.238;2024-01-25T08:57:37;8.82;;;2.50;;
66751;SDS011;53663;42.676;23.238;2024-01-25T09:00:05;9.55;;;3.30;;
66751;SDS011;53663;42.676;23.238;2024-01-25T09:02:36;7.50;;;2.92;;
66751;SDS011;53663;42.676;23.238;2024-01-25T09:05:02;11.27;;;3.08;;
66751;SDS011;53663;42.676;23.238;2024-01-25T09:07:28;9.18;;;2.45;;
66751;SDS011;53663;42.676;23.238;2024-01-25T09:09:54;8.85;;;2.10;;
66751;SDS011;53663;42.676;23.238;2024-01-25T09:12:20;8.93;;;2.88;;
66751;SDS011;53663;42.676;23.238;2024-01-25T09:14:45;6.70;;;2.40;;
66751;SDS011;53663;42.676;23.238;2024-01-25T09:17:11;8.00;;;2.60;;
66751;SDS011;53663;42.676;23.238;2024-01-25T09:19:39;7.55;;;2.20;;
66751;SDS011;53663;42.676;23.238;2024-01-25T09:22:06;7.95;;;2.80;;
66751;SDS011;53663;42.676;23.238;2024-01-25T09:24:33;9.63;;;3.00;;
66751;SDS011;53663;42.676;23.238;2024-01-25T09:27:01;8.85;;;2.65;;
66751;SDS011;53663;42.676;23.238;2024-01-25T09:29:27;7.80;;;3.00;;
66751;SDS011;53663;42.676;23.238;2024-01-25T09:31:53;5.50;;;2.53;;
66751;SDS011;53663;42.676;23.238;2024-01-25T09:34:19;13.85;;;3.08;;
66751;SDS011;53663;42.676;23.238;2024-01-25T09:36:46;6.10;;;2.50;;
66751;SDS011;53663;42.676;23.238;2024-01-25T09:39:12;12.38;;;3.75;;
66751;SDS011;53663;42.676;23.238;2024-01-25T09:41:39;10.38;;;3.20;;
66751;SDS011;53663;42.676;23.238;2024-01-25T09:44:09;10.52;;;2.95;;
66751;SDS011;53663;42.676;23.238;2024-01-25T09:46:36;6.82;;;2.60;;
66751;SDS011;53663;42.676;23.238;2024-01-25T09:49:02;9.93;;;3.05;;
66751;SDS011;53663;42.676;23.238;2024-01-25T09:51:29;5.60;;;2.25;;
66751;SDS011;53663;42.676;23.238;2024-01-25T09:54:03;7.18;;;2.72;;
66751;SDS011;53663;42.676;23.238;2024-01-25T09:56:34;10.77;;;3.10;;
66751;SDS011;53663;42.676;23.238;2024-01-25T09:59:00;7.68;;;2.40;;
66751;SDS011;53663;42.676;23.238;2024-01-25T10:01:26;9.95;;;3.20;;
66751;SDS011;53663;42.676;23.238;2024-01-25T10:03:52;13.65;;;2.92;;
66751;SDS011;53663;42.676;23.238;2024-01-25T10:06:21;8.93;;;2.75;;
66751;SDS011;53663;42.676;23.238;2024-01-25T10:08:48;15.77;;;3.15;;
66751;SDS011;53663;42.676;23.238;2024-01-25T10:11:14;12.05;;;3.22;;
66751;SDS011;53663;42.676;23.238;2024-01-25T10:13:41;5.95;;;2.45;;
66751;SDS011;53663;42.676;23.238;2024-01-25T10:16:10;10.27;;;2.80;;
66751;SDS011;53663;42.676;23.238;2024-01-25T10:18:40;7.18;;;2.70;;
66751;SDS011;53663;42.676;23.238;2024-01-25T10:21:10;6.70;;;2.45;;
66751;SDS011;53663;42.676;23.238;2024-01-25T10:23:37;13.68;;;3.47;;
66751;SDS011;53663;42.676;23.238;2024-01-25T10:26:09;10.15;;;2.70;;
66751;SDS011;53663;42.676;23.238;2024-01-25T10:28:36;9.48;;;3.22;;
66751;SDS011;53663;42.676;23.238;2024-01-25T10:31:02;12.93;;;3.78;;
66751;SDS011;53663;42.676;23.238;2024-01-25T10:33:33;9.13;;;3.28;;
66751;SDS011;53663;42.676;23.238;2024-01-25T10:36:00;8.20;;;2.80;;
66751;SDS011;53663;42.676;23.238;2024-01-25T10:38:34;12.88;;;2.88;;
66751;SDS011;53663;42.676;23.238;2024-01-25T10:41:01;5.75;;;2.38;;
66751;SDS011;53663;42.676;23.238;2024-01-25T10:43:28;8.00;;;2.70;;
66751;SDS011;53663;42.676;23.238;2024-01-25T10:45:58;6.60;;;2.45;;
66751;SDS011;53663;42.676;23.238;2024-01-25T10:48:25;9.90;;;2.88;;
66751;SDS011;53663;42.676;23.238;2024-01-25T10:50:52;8.32;;;2.75;;
66751;SDS011;53663;42.676;23.238;2024-01-25T10:53:19;6.53;;;2.50;;
66751;SDS011;53663;42.676;23.238;2024-01-25T10:55:46;5.75;;;2.30;;
66751;SDS011;53663;42.676;23.238;2024-01-25T10:58:16;9.57;;;2.70;;
66751;SDS011;53663;42.676;23.238;2024-01-25T11:00:49;5.82;;;2.20;;
66751;SDS011;53663;42.676;23.238;2024-01-25T11:03:17;11.98;;;2.55;;
66751;SDS011;53663;42.676;23.238;2024-01-25T11:05:45;7.32;;;2.75;;
66751;SDS011;53663;42.676;23.238;2024-01-25T11:08:19;10.35;;;2.80;;
66751;SDS011;53663;42.676;23.238;2024-01-25T11:10:49;9.02;;;3.13;;
66751;SDS011;53663;42.676;23.238;2024-01-25T11:13:17;10.73;;;3.70;;
66751;SDS011;53663;42.676;23.238;2024-01-25T11:15:50;14.73;;;2.90;;
66751;SDS011;53663;42.676;23.238;2024-01-25T11:18:16;10.02;;;3.25;;
66751;SDS011;53663;42.676;23.238;2024-01-25T11:20:41;11.00;;;3.22;;
66751;SDS011;53663;42.676;23.238;2024-01-25T11:23:07;10.70;;;3.15;;
66751;SDS011;53663;42.676;23.238;2024-01-25T11:25:35;10.88;;;3.88;;
66751;SDS011;53663;42.676;23.238;2024-01-25T11:28:02;10.02;;;2.92;;
66751;SDS011;53663;42.676;23.238;2024-01-25T11:30:31;9.55;;;2.45;;
66751;SDS011;53663;42.676;23.238;2024-01-25T11:32:59;10.93;;;3.10;;
66751;SDS011;53663;42.676;23.238;2024-01-25T11:35:25;10.50;;;2.85;;
66751;SDS011;53663;42.676;23.238;2024-01-25T11:37:52;8.48;;;2.63;;
66751;SDS011;53663;42.676;23.238;2024-01-25T11:40:18;9.13;;;3.10;;
66751;SDS011;53663;42.676;23.238;2024-01-25T11:42:48;8.00;;;2.53;;
66751;SDS011;53663;42.676;23.238;2024-01-25T11:45:15;7.38;;;2.45;;
66751;SDS011;53663;42.676;23.238;2024-01-25T11:47:42;5.80;;;2.35;;
66751;SDS011;53663;42.676;23.238;2024-01-25T11:50:09;11.63;;;3.25;;
66751;SDS011;53663;42.676;23.238;2024-01-25T11:52:36;8.88;;;3.17;;
66751;SDS011;53663;42.676;23.238;2024-01-25T11:55:03;6.90;;;2.65;;
66751;SDS011;53663;42.676;23.238;2024-01-25T11:57:39;8.45;;;2.22;;
66751;SDS011;53663;42.676;23.238;2024-01-25T12:00:09;8.88;;;2.55;;
66751;SDS011;53663;42.676;23.238;2024-01-25T12:02:38;8.07;;;2.60;;
66751;SDS011;53663;42.676;23.238;2024-01-25T12:05:05;11.55;;;2.47;;
66751;SDS011;53663;42.676;23.238;2024-01-25T12:07:32;7.90;;;2.30;;
66751;SDS011;53663;42.676;23.238;2024-01-25T12:10:07;7.18;;;2.50;;
66751;SDS011;53663;42.676;23.238;2024-01-25T12:12:37;6.35;;;2.00;;
66751;SDS011;53663;42.676;23.238;2024-01-25T12:15:06;9.23;;;3.13;;
66751;SDS011;53663;42.676;23.238;2024-01-25T12:17:33;9.90;;;2.97;;
66751;SDS011;53663;42.676;23.238;2024-01-25T12:20:01;7.38;;;2.70;;
66751;SDS011;53663;42.676;23.238;2024-01-25T12:22:28;13.20;;;2.70;;
66751;SDS011;53663;42.676;23.238;2024-01-25T12:24:58;5.10;;;2.15;;
66751;SDS011;53663;42.676;23.238;2024-01-25T12:27:24;7.13;;;2.70;;
66751;SDS011;53663;42.676;23.238;2024-01-25T12:29:51;9.23;;;2.65;;
66751;SDS011;53663;42.676;23.238;2024-01-25T12:32:20;8.15;;;3.42;;
66751;SDS011;53663;42.676;23.238;2024-01-25T12:34:56;10.40;;;2.88;;
66751;SDS011;53663;42.676;23.238;2024-01-25T12:37:22;10.43;;;3.13;;
66751;SDS011;53663;42.676;23.238;2024-01-25T12:39:49;9.55;;;3.10;;
66751;SDS011;53663;42.676;23.238;2024-01-25T12:42:17;7.88;;;3.08;;
66751;SDS011;53663;42.676;23.238;2024-01-25T12:44:46;8.00;;;2.83;;
66751;SDS011;53663;42.676;23.238;2024-01-25T12:47:12;6.93;;;2.65;;
66751;SDS011;53663;42.676;23.238;2024-01-25T12:49:41;8.40;;;2.72;;
66751;SDS011;53663;42.676;23.238;2024-01-25T12:52:09;13.68;;;3.78;;
66751;SDS011;53663;42.676;23.238;2024-01-25T12:54:39;9.63;;;4.13;;
66751;SDS011;53663;42.676;23.238;2024-01-25T12:57:05;10.57;;;3.20;;
66751;SDS011;53663;42.676;23.238;2024-01-25T12:59:32;10.50;;;3.35;;
66751;SDS011;53663;42.676;23.238;2024-01-25T13:02:01;9.53;;;2.80;;
66751;SDS011;53663;42.676;23.238;2024-01-25T13:04:27;8.27;;;3.22;;
66751;SDS011;53663;42.676;23.238;2024-01-25T13:06:53;8.57;;;2.45;;
66751;SDS011;53663;42.676;23.238;2024-01-25T13:09:21;10.98;;;5.28;;
66751;SDS011;53663;42.676;23.238;2024-01-25T13:11:48;8.90;;;2.95;;
66751;SDS011;53663;42.676;23.238;2024-01-25T13:14:14;8.23;;;2.63;;
66751;SDS011;53663;42.676;23.238;2024-01-25T13:16:40;6.55;;;3.17;;
66751;SDS011;53663;42.676;23.238;2024-01-25T13:19:06;6.43;;;2.30;;
66751;SDS011;53663;42.676;23.238;2024-01-25T13:21:32;10.15;;;3.63;;
66751;SDS011;53663;42.676;23.238;2024-01-25T13:24:01;8.02;;;2.85;;
66751;SDS011;53663;42.676;23.238;2024-01-25T13:26:27;7.30;;;2.83;;
66751;SDS011;53663;42.676;23.238;2024-01-25T13:28:53;13.23;;;3.30;;
66751;SDS011;53663;42.676;23.238;2024-01-25T13:31:19;8.82;;;2.67;;
66751;SDS011;53663;42.676;23.238;2024-01-25T13:33:45;8.95;;;3.33;;
66751;SDS011;53663;42.676;23.238;2024-01-25T13:36:12;8.90;;;2.90;;
66751;SDS011;53663;42.676;23.238;2024-01-25T13:38:42;11.65;;;2.80;;
66751;SDS011;53663;42.676;23.238;2024-01-25T13:41:08;10.35;;;2.22;;
66751;SDS011;53663;42.676;23.238;2024-01-25T13:43:34;11.93;;;3.33;;
66751;SDS011;53663;42.676;23.238;2024-01-25T13:46:00;7.32;;;2.50;;
66751;SDS011;53663;42.676;23.238;2024-01-25T13:48:26;16.60;;;3.33;;
66751;SDS011;53663;42.676;23.238;2024-01-25T13:50:52;10.35;;;2.92;;
66751;SDS011;53663;42.676;23.238;2024-01-25T13:53:17;7.82;;;2.70;;
66751;SDS011;53663;42.676;23.238;2024-01-25T13:55:44;13.75;;;3.38;;
66751;SDS011;53663;42.676;23.238;2024-01-25T13:58:10;12.05;;;4.80;;
66751;SDS011;53663;42.676;23.238;2024-01-25T14:00:36;13.00;;;3.15;;
66751;SDS011;53663;42.676;23.238;2024-01-25T14:03:01;11.85;;;3.38;;
66751;SDS011;53663;42.676;23.238;2024-01-25T14:05:28;7.97;;;2.90;;
66751;SDS011;53663;42.676;23.238;2024-01-25T14:07:54;11.77;;;3.13;;
66751;SDS011;53663;42.676;23.238;2024-01-25T14:10:20;11.13;;;4.10;;
66751;SDS011;53663;42.676;23.238;2024-01-25T14:12:46;9.38;;;3.38;;
66751;SDS011;53663;42.676;23.238;2024-01-25T14:15:12;9.00;;;2.65;;
66751;SDS011;53663;42.676;23.238;2024-01-25T14:17:38;7.75;;;2.72;;
66751;SDS011;53663;42.676;23.238;2024-01-25T14:20:04;15.18;;;3.13;;
66751;SDS011;53663;42.676;23.238;2024-01-25T14:22:31;11.15;;;2.85;;
66751;SDS011;53663;42.676;23.238;2024-01-25T14:24:56;8.27;;;2.60;;